createdAt,value
2017-11-12T00:04:01.919Z,7.40
2017-11-12T00:06:30.214Z,7.40
2017-11-12T00:08:58.916Z,7.40
2017-11-12T00:11:28.231Z,7.40
2017-11-12T00:13:56.927Z,7.40
2017-11-12T00:16:25.219Z,7.40
2017-11-12T00:18:53.575Z,7.40
2017-11-12T00:21:23.384Z,7.40
2017-11-12T00:23:51.663Z,7.30
2017-11-12T00:26:20.007Z,7.20
2017-11-12T00:28:48.281Z,7.20
2017-11-12T00:31:16.568Z,7.10
2017-11-12T00:33:45.303Z,7.10
2017-11-12T00:36:13.991Z,7.10
2017-11-12T00:38:43.411Z,7.10
2017-11-12T00:41:12.531Z,7.20
2017-11-12T00:46:11.472Z,7.20
2017-11-12T00:48:40.259Z,7.20
2017-11-12T00:51:09.672Z,7.20
2017-11-12T00:53:37.948Z,7.10
2017-11-12T00:56:07.052Z,7.00
2017-11-12T00:58:36.472Z,6.90
2017-11-12T01:01:05.148Z,6.90
2017-11-12T01:03:33.477Z,6.90
2017-11-12T01:06:01.780Z,6.90
2017-11-12T01:08:31.564Z,6.90
2017-11-12T01:11:00.023Z,6.90
2017-11-12T01:13:28.299Z,6.90
2017-11-12T01:15:56.588Z,6.80
2017-11-12T01:18:25.510Z,6.80
2017-11-12T01:20:54.189Z,6.80
2017-11-12T01:23:22.493Z,6.90
2017-11-12T01:25:50.860Z,6.80
2017-11-12T01:28:19.919Z,6.90
2017-11-12T01:30:49.350Z,7.00
2017-11-12T01:33:18.559Z,7.10
2017-11-12T01:35:47.611Z,7.20
2017-11-12T01:38:15.910Z,7.20
2017-11-12T01:40:45.144Z,7.30
2017-11-12T01:43:13.423Z,7.20
2017-11-12T01:45:41.770Z,7.20
2017-11-12T01:48:11.237Z,7.20
2017-11-12T01:50:39.520Z,7.20
2017-11-12T01:53:07.811Z,7.20
2017-11-12T01:55:36.984Z,7.20
2017-11-12T01:58:06.423Z,7.20
2017-11-12T02:00:34.702Z,7.10
2017-11-12T02:03:03.037Z,7.10
2017-11-12T02:05:32.451Z,7.20
2017-11-12T02:10:34.605Z,7.30
2017-11-12T02:13:02.884Z,7.30
2017-11-12T02:15:31.160Z,7.40
2017-11-12T02:17:59.492Z,7.50
2017-11-12T02:20:27.776Z,7.50
2017-11-12T02:22:56.824Z,7.60
2017-11-12T02:25:28.508Z,7.60
2017-11-12T02:27:57.186Z,7.60
2017-11-12T02:30:25.468Z,7.70
2017-11-12T02:32:53.811Z,7.60
2017-11-12T02:35:24.126Z,7.50
2017-11-12T02:37:52.414Z,7.60
2017-11-12T02:40:21.564Z,7.60
2017-11-12T02:42:49.863Z,7.60
2017-11-12T02:45:18.142Z,7.60
2017-11-12T02:47:46.582Z,7.70
2017-11-12T02:50:14.870Z,7.70
2017-11-12T02:52:44.280Z,7.70
2017-11-12T02:55:13.398Z,7.80
2017-11-12T02:57:43.199Z,7.80
2017-11-12T03:00:12.261Z,7.80
2017-11-12T03:02:41.348Z,7.70
2017-11-12T03:05:10.035Z,7.70
2017-11-12T03:07:38.819Z,7.70
2017-11-12T03:10:07.145Z,7.60
2017-11-12T03:12:35.420Z,7.60
2017-11-12T03:15:03.703Z,7.60
2017-11-12T03:20:01.588Z,7.60
2017-11-12T03:22:29.898Z,7.60
2017-11-12T03:24:58.226Z,7.60
2017-11-12T03:27:26.506Z,7.60
2017-11-12T03:29:54.786Z,7.70
2017-11-12T03:32:23.123Z,7.70
2017-11-12T03:34:52.543Z,7.70
2017-11-12T03:37:21.217Z,7.70
2017-11-12T03:39:49.534Z,7.70
2017-11-12T03:42:17.841Z,7.70
2017-11-12T03:44:46.516Z,7.70
2017-11-12T03:47:14.919Z,7.70
2017-11-12T03:49:43.199Z,7.60
2017-11-12T03:52:12.982Z,7.60
2017-11-12T03:54:41.327Z,7.70
2017-11-12T03:59:39.151Z,7.70
2017-11-12T04:02:07.494Z,7.70
2017-11-12T04:04:35.775Z,7.70
2017-11-12T04:09:34.020Z,7.80
2017-11-12T04:12:03.064Z,7.70
2017-11-12T04:14:31.362Z,7.70
2017-11-12T04:19:30.111Z,7.70
2017-11-12T04:21:59.176Z,7.70
2017-11-12T04:24:27.519Z,7.70
2017-11-12T04:26:56.191Z,7.70
2017-11-12T04:29:24.494Z,7.70
2017-11-12T04:31:53.651Z,7.70
2017-11-12T04:34:22.704Z,7.70
2017-11-12T04:39:21.828Z,7.70
2017-11-12T04:44:19.614Z,7.60
2017-11-12T04:46:47.959Z,7.60
2017-11-12T04:49:17.011Z,7.70
2017-11-12T04:51:45.294Z,7.70
2017-11-12T04:54:14.012Z,7.70
2017-11-12T04:56:43.056Z,7.70
2017-11-12T04:59:12.471Z,7.60
2017-11-12T05:01:41.200Z,7.70
2017-11-12T05:04:09.496Z,7.70
2017-11-12T05:06:37.793Z,7.80
2017-11-12T05:09:06.548Z,7.80
2017-11-12T05:11:34.855Z,7.90
2017-11-12T05:14:04.665Z,7.90
2017-11-12T05:16:33.011Z,7.90
2017-11-12T05:19:01.306Z,7.90
2017-11-12T05:21:29.585Z,7.90
2017-11-12T05:23:58.064Z,7.80
2017-11-12T05:26:26.353Z,7.90
2017-11-12T05:28:55.392Z,7.80
2017-11-12T05:31:23.753Z,7.80
2017-11-12T05:33:52.062Z,7.90
2017-11-12T05:36:21.119Z,7.90
2017-11-12T05:38:50.212Z,7.90
2017-11-12T05:41:18.492Z,7.90
2017-11-12T05:43:46.774Z,7.90
2017-11-12T05:48:45.037Z,8.00
2017-11-12T05:51:13.323Z,7.90
2017-11-12T05:56:12.297Z,8.00
2017-11-12T05:58:42.039Z,7.90
2017-11-12T06:01:11.542Z,7.90
2017-11-12T06:03:41.319Z,7.90
2017-11-12T06:08:39.201Z,7.80
2017-11-12T06:11:08.219Z,7.80
2017-11-12T06:13:37.703Z,7.80
2017-11-12T06:16:07.487Z,7.80
2017-11-12T06:18:36.164Z,7.80
2017-11-12T06:21:04.504Z,7.80
2017-11-12T06:23:32.802Z,7.70
2017-11-12T06:26:01.115Z,7.70
2017-11-12T06:28:29.855Z,7.70
2017-11-12T06:30:58.914Z,7.70
2017-11-12T06:33:27.203Z,7.70
2017-11-12T06:35:56.329Z,7.70
2017-11-12T06:38:24.624Z,7.70
2017-11-12T06:40:52.922Z,7.70
2017-11-12T06:45:51.701Z,7.60
2017-11-12T06:48:21.487Z,7.60
2017-11-12T06:50:49.818Z,7.70
2017-11-12T06:53:18.107Z,7.70
2017-11-12T06:55:47.180Z,7.70
2017-11-12T06:58:16.451Z,7.80
2017-11-12T07:00:46.240Z,7.80
2017-11-12T07:03:14.518Z,7.70
2017-11-12T07:05:42.848Z,7.70
2017-11-12T07:08:11.535Z,7.80
2017-11-12T07:10:39.821Z,7.80
2017-11-12T07:15:38.111Z,7.80
2017-11-12T07:18:06.410Z,7.70
2017-11-12T07:20:34.748Z,7.80
2017-11-12T07:23:04.179Z,7.70
2017-11-12T07:25:32.460Z,7.70
2017-11-12T07:30:31.687Z,7.80
2017-11-12T07:32:59.974Z,7.80
2017-11-12T07:35:29.060Z,7.80
2017-11-12T07:37:57.340Z,7.80
2017-11-12T07:40:26.403Z,7.90
2017-11-12T07:42:55.516Z,7.90
2017-11-12T07:45:24.207Z,7.90
2017-11-12T07:47:52.488Z,7.90
2017-11-12T07:50:21.593Z,8.00
2017-11-12T07:52:49.874Z,8.00
2017-11-12T07:55:18.152Z,8.00
2017-11-12T07:57:46.508Z,8.00
2017-11-12T08:00:16.295Z,8.00
2017-11-12T08:05:14.172Z,8.00
2017-11-12T08:07:42.456Z,8.00
2017-11-12T08:10:10.792Z,8.00
2017-11-12T08:12:39.072Z,7.90
2017-11-12T08:15:07.347Z,8.00
2017-11-12T08:17:37.189Z,8.10
2017-11-12T08:20:06.249Z,8.00
2017-11-12T08:22:34.947Z,8.00
2017-11-12T08:25:04.428Z,8.10
2017-11-12T08:27:32.710Z,8.10
2017-11-12T08:30:01.395Z,8.00
2017-11-12T08:32:30.141Z,8.00
2017-11-12T08:34:58.827Z,7.90
2017-11-12T08:37:27.500Z,7.90
2017-11-12T08:39:56.398Z,8.00
2017-11-12T08:42:24.682Z,8.00
2017-11-12T08:47:22.523Z,7.90
2017-11-12T08:49:50.838Z,8.00
2017-11-12T08:52:20.251Z,8.00
2017-11-12T08:54:48.613Z,8.00
2017-11-12T08:57:17.660Z,8.10
2017-11-12T08:59:46.712Z,8.10
2017-11-12T09:02:15.457Z,8.20
2017-11-12T09:04:43.753Z,8.20
2017-11-12T09:07:12.036Z,8.20
2017-11-12T09:09:41.991Z,8.20
2017-11-12T09:12:11.411Z,8.20
2017-11-12T09:14:40.475Z,8.20
2017-11-12T09:17:10.010Z,8.20
2017-11-12T09:19:39.444Z,8.10
2017-11-12T09:22:07.743Z,8.20
2017-11-12T09:27:06.400Z,8.10
2017-11-12T09:32:04.317Z,8.20
2017-11-12T09:34:32.592Z,8.20
2017-11-12T09:37:02.390Z,8.30
2017-11-12T09:39:31.496Z,8.20
2017-11-12T09:41:59.784Z,8.30
2017-11-12T09:44:29.223Z,8.20
2017-11-12T09:46:57.964Z,8.30
2017-11-12T09:49:27.758Z,8.10
2017-11-12T09:54:26.396Z,8.00
2017-11-12T09:56:55.064Z,7.90
2017-11-12T09:59:23.384Z,7.90
2017-11-12T10:04:22.004Z,7.90
2017-11-12T10:06:50.276Z,8.00
2017-11-12T10:09:18.616Z,8.00
2017-11-12T10:11:46.931Z,8.00
2017-11-12T10:14:15.220Z,8.00
2017-11-12T10:16:44.326Z,8.00
2017-11-12T10:19:12.605Z,8.00
2017-11-12T10:21:41.277Z,7.90
2017-11-12T10:24:09.590Z,8.00
2017-11-12T10:26:39.023Z,8.00
2017-11-12T10:31:37.681Z,8.00
2017-11-12T10:36:37.180Z,8.00
2017-11-12T10:39:05.491Z,8.00
2017-11-12T10:44:03.353Z,8.10
2017-11-12T10:46:31.643Z,8.10
2017-11-12T10:49:01.427Z,8.10
2017-11-12T10:51:30.937Z,8.00
2017-11-12T10:56:28.746Z,8.10
2017-11-12T10:58:57.090Z,8.10
2017-11-12T11:01:26.141Z,8.10
2017-11-12T11:03:54.420Z,8.10
2017-11-12T11:06:22.756Z,8.00
2017-11-12T11:08:51.458Z,7.90
2017-11-12T11:11:19.743Z,7.90
2017-11-12T11:13:48.861Z,8.00
2017-11-12T11:16:17.534Z,8.00
2017-11-12T11:23:47.028Z,7.80
2017-11-12T11:26:15.326Z,7.80
2017-11-12T11:31:13.589Z,7.90
2017-11-12T11:33:41.876Z,8.10
2017-11-12T11:38:40.514Z,8.10
2017-11-12T11:41:08.803Z,8.10
2017-11-12T11:43:37.141Z,8.10
2017-11-12T11:46:06.930Z,8.10
2017-11-12T11:48:35.214Z,8.00
2017-11-12T11:51:04.319Z,8.10
2017-11-12T11:53:33.016Z,8.20
2017-11-12T11:56:01.303Z,8.20
2017-11-12T12:00:59.955Z,8.30
2017-11-12T12:03:29.012Z,8.30
2017-11-12T12:05:57.351Z,8.30
2017-11-12T12:08:25.671Z,8.50
2017-11-12T12:10:53.980Z,8.50
2017-11-12T12:13:23.594Z,8.60
2017-11-12T12:15:51.915Z,8.70
2017-11-12T12:18:20.237Z,8.80
2017-11-12T12:20:48.563Z,8.90
2017-11-12T12:23:17.987Z,9.00
2017-11-12T12:25:46.281Z,9.10
2017-11-12T12:28:14.607Z,9.20
2017-11-12T12:30:44.396Z,9.10
2017-11-12T12:33:13.441Z,9.10
2017-11-12T12:35:43.259Z,9.10
2017-11-12T12:43:11.344Z,9.20
2017-11-12T12:48:09.119Z,9.00
2017-11-12T12:53:07.411Z,9.10
2017-11-12T12:55:35.695Z,9.10
2017-11-12T12:58:04.039Z,9.00
2017-11-12T13:00:32.324Z,9.10
2017-11-12T13:03:00.608Z,9.00
2017-11-12T13:05:30.104Z,8.90
2017-11-12T13:10:28.311Z,8.90
2017-11-12T13:12:56.678Z,8.90
2017-11-12T13:15:24.982Z,9.00
2017-11-12T13:20:23.197Z,9.00
2017-11-12T13:22:51.476Z,9.00
2017-11-12T13:25:19.772Z,9.00
2017-11-12T13:27:48.860Z,9.00
2017-11-12T13:30:17.145Z,9.00
2017-11-12T13:32:45.427Z,8.90
2017-11-12T13:35:14.504Z,8.80
2017-11-12T13:37:43.196Z,8.70
2017-11-12T13:40:11.457Z,8.70
2017-11-12T13:45:09.693Z,8.70
2017-11-12T13:50:08.690Z,8.60
2017-11-12T13:52:36.963Z,8.60
2017-11-12T13:55:06.403Z,8.60
2017-11-12T14:02:34.161Z,8.70
2017-11-12T14:05:03.612Z,8.70
2017-11-12T14:07:32.646Z,8.70
2017-11-12T14:10:02.076Z,8.70
2017-11-12T14:12:30.383Z,8.70
2017-11-12T14:14:59.063Z,8.70
2017-11-12T14:17:28.849Z,8.70
2017-11-12T14:19:57.232Z,8.60
2017-11-12T14:22:25.508Z,8.60
2017-11-12T14:24:54.572Z,8.50
2017-11-12T14:27:23.681Z,8.50
2017-11-12T14:29:51.952Z,8.60
2017-11-12T14:32:20.239Z,8.60
2017-11-12T14:34:48.555Z,8.60
2017-11-12T14:37:17.591Z,8.50
2017-11-12T14:39:46.653Z,8.60
2017-11-12T14:42:18.428Z,8.50
2017-11-12T14:44:47.107Z,8.50
2017-11-12T14:47:15.419Z,8.60
2017-11-12T14:49:44.520Z,8.50
2017-11-12T14:52:13.932Z,8.50
2017-11-12T14:54:42.631Z,8.50
2017-11-12T14:57:11.749Z,8.50
2017-11-12T14:59:44.722Z,8.40
2017-11-12T15:02:13.044Z,8.30
2017-11-12T15:04:41.311Z,8.30
2017-11-12T15:07:09.602Z,8.20
2017-11-12T15:09:37.958Z,8.10
2017-11-12T15:12:06.237Z,8.20
2017-11-12T15:14:34.512Z,8.10
2017-11-12T15:17:02.836Z,8.10
2017-11-12T15:19:32.242Z,8.10
2017-11-12T15:22:00.527Z,8.10
2017-11-12T15:24:30.020Z,8.00
2017-11-12T15:26:59.062Z,8.00
2017-11-12T15:29:27.332Z,7.90
2017-11-12T15:31:56.436Z,7.90
2017-11-12T15:34:24.711Z,7.90
2017-11-12T15:36:54.523Z,7.90
2017-11-12T15:39:23.275Z,7.90
2017-11-12T15:41:51.553Z,7.80
2017-11-12T15:44:21.368Z,7.80
2017-11-12T15:46:49.705Z,7.80
2017-11-12T15:49:17.995Z,7.80
2017-11-12T15:51:46.266Z,7.80
2017-11-12T15:56:44.105Z,7.90
2017-11-12T15:59:12.402Z,7.80
2017-11-12T16:01:40.720Z,7.90
2017-11-12T16:04:09.772Z,7.80
2017-11-12T16:06:38.816Z,7.80
2017-11-12T16:09:07.171Z,7.80
2017-11-12T16:11:36.216Z,7.80
2017-11-12T16:16:35.399Z,7.70
2017-11-12T16:19:04.459Z,7.50
2017-11-12T16:21:32.732Z,7.70
2017-11-12T16:24:01.446Z,7.70
2017-11-12T16:26:31.242Z,7.70
2017-11-12T16:28:59.509Z,7.70
2017-11-12T16:31:27.823Z,7.70
2017-11-12T16:33:56.103Z,7.60
2017-11-12T16:36:24.391Z,7.60
2017-11-12T16:41:22.222Z,7.80
2017-11-12T16:43:51.628Z,7.70
2017-11-12T16:48:49.903Z,7.70
2017-11-12T16:51:18.184Z,7.60
2017-11-12T16:53:48.043Z,7.70
2017-11-12T16:58:46.255Z,7.60
2017-11-12T17:03:44.491Z,7.60
2017-11-12T17:06:12.761Z,7.60
2017-11-12T17:08:41.910Z,7.70
2017-11-12T17:11:11.346Z,7.60
2017-11-12T17:16:09.299Z,7.60
2017-11-12T17:18:37.572Z,7.60
2017-11-12T17:21:06.615Z,7.50
2017-11-12T17:26:04.457Z,7.40
2017-11-12T17:28:32.732Z,7.40
2017-11-12T17:31:02.180Z,7.30
2017-11-12T17:35:59.974Z,7.30
2017-11-12T17:38:28.299Z,7.30
2017-11-12T17:40:56.588Z,7.20
2017-11-12T17:43:24.864Z,7.30
2017-11-12T17:45:53.191Z,7.30
2017-11-12T17:48:21.477Z,7.20
2017-11-12T17:50:49.753Z,7.20
2017-11-12T17:53:18.859Z,7.20
2017-11-12T17:55:47.136Z,7.20
2017-11-12T18:05:43.972Z,7.20
2017-11-12T18:08:12.308Z,7.20
2017-11-12T18:10:40.583Z,7.10
2017-11-12T18:13:09.629Z,7.20
2017-11-12T18:15:37.976Z,7.10
2017-11-12T18:18:06.268Z,7.10
2017-11-12T18:23:04.921Z,7.10
2017-11-12T18:25:33.965Z,7.00
2017-11-12T18:28:02.240Z,7.10
2017-11-12T18:30:31.347Z,7.10
2017-11-12T18:33:00.391Z,7.10
2017-11-12T18:35:28.700Z,7.00
2017-11-12T18:37:57.024Z,7.00
2017-11-12T18:40:25.296Z,7.00
2017-11-12T18:42:53.595Z,7.00
2017-11-12T18:47:51.853Z,7.00
2017-11-12T18:50:20.163Z,7.00
2017-11-12T18:52:48.918Z,7.10
2017-11-12T18:55:32.902Z,7.10
2017-11-12T18:58:02.002Z,7.10
2017-11-12T19:00:36.046Z,7.10
2017-11-12T19:03:05.965Z,7.10
2017-11-12T19:05:39.916Z,7.00
2017-11-12T19:08:08.243Z,7.00
2017-11-12T19:10:38.032Z,7.00
2017-11-12T19:13:06.315Z,7.00
2017-11-12T19:15:34.665Z,7.00
2017-11-12T19:18:06.420Z,7.10
2017-11-12T19:23:35.439Z,7.10
2017-11-12T19:28:43.062Z,7.20
2017-11-12T19:31:12.136Z,7.10
2017-11-12T19:36:11.460Z,7.10
2017-11-12T19:38:39.800Z,7.10
2017-11-12T19:41:09.586Z,7.10
2017-11-12T19:43:37.872Z,7.10
2017-11-12T19:46:06.244Z,7.00
2017-11-12T19:51:04.049Z,7.10
2017-11-12T19:53:32.397Z,7.10
2017-11-12T19:56:00.687Z,7.10
2017-11-12T19:58:30.486Z,7.20
2017-11-12T20:00:59.214Z,7.20
2017-11-12T20:03:27.495Z,7.20
2017-11-12T20:05:55.782Z,7.20
2017-11-12T20:08:24.130Z,7.20
2017-11-12T20:10:53.575Z,7.20
2017-11-12T20:13:22.989Z,7.20
2017-11-12T20:15:52.108Z,7.20
2017-11-12T20:18:21.460Z,7.20
2017-11-12T20:20:49.751Z,7.20
2017-11-12T20:23:19.595Z,7.20
2017-11-12T20:25:47.920Z,7.10
2017-11-12T20:28:16.196Z,7.10
2017-11-12T20:33:14.194Z,7.10
2017-11-12T20:35:42.737Z,7.10
2017-11-12T20:38:12.198Z,7.10
2017-11-12T20:40:40.490Z,7.10
2017-11-12T20:43:08.781Z,7.10
2017-11-12T20:45:37.515Z,7.00
2017-11-12T20:48:05.792Z,7.10
2017-11-12T20:50:35.208Z,7.00
2017-11-12T20:53:04.662Z,7.00
2017-11-12T20:55:32.948Z,7.00
2017-11-12T20:58:02.024Z,6.90
2017-11-12T21:00:31.139Z,6.90
2017-11-12T21:02:59.426Z,6.80
2017-11-12T21:07:57.839Z,6.90
2017-11-12T21:10:27.636Z,6.80
2017-11-12T21:12:55.917Z,6.90
2017-11-12T21:15:24.424Z,6.90
2017-11-12T21:17:52.708Z,6.90
2017-11-12T21:20:25.056Z,6.90
2017-11-12T21:22:53.332Z,6.90
2017-11-12T21:25:22.390Z,6.90
2017-11-12T21:27:51.653Z,7.00
2017-11-12T21:30:21.651Z,7.00
2017-11-12T21:32:52.313Z,7.00
2017-11-12T21:37:54.583Z,7.00
2017-11-12T21:40:22.877Z,7.00
2017-11-12T21:47:51.394Z,6.90
2017-11-12T21:50:19.671Z,6.90
2017-11-12T21:52:48.040Z,6.90
2017-11-12T21:55:16.332Z,6.80
2017-11-12T21:57:44.606Z,6.80
2017-11-12T22:00:13.053Z,6.80
2017-11-12T22:02:42.858Z,6.90
2017-11-12T22:05:11.141Z,6.90
2017-11-12T22:10:08.986Z,6.90
2017-11-12T22:12:37.291Z,6.80
2017-11-12T22:15:05.611Z,6.90
2017-11-12T22:17:34.662Z,6.90
2017-11-12T22:20:02.959Z,6.90
2017-11-12T22:22:32.415Z,6.90
2017-11-12T22:25:02.215Z,6.80
2017-11-12T22:30:01.197Z,6.70
2017-11-12T22:32:29.480Z,6.70
2017-11-12T22:34:57.795Z,6.70
2017-11-12T22:37:26.072Z,6.70
2017-11-12T22:39:54.339Z,6.80
2017-11-12T22:42:22.667Z,6.70
2017-11-12T22:44:52.087Z,6.70
2017-11-12T22:47:20.387Z,6.70
2017-11-12T22:49:48.730Z,6.70
2017-11-12T22:52:16.996Z,6.70
2017-11-12T22:54:45.266Z,6.60
2017-11-12T22:57:13.618Z,6.60
2017-11-12T22:59:42.287Z,6.60
2017-11-12T23:02:11.697Z,6.60
2017-11-12T23:12:08.981Z,6.40
2017-11-12T23:14:37.249Z,6.40
2017-11-12T23:17:06.288Z,6.40
2017-11-12T23:22:05.261Z,6.30
2017-11-12T23:24:33.532Z,6.20
2017-11-12T23:27:02.156Z,6.20
2017-11-12T23:29:30.429Z,6.20
2017-11-12T23:31:58.716Z,6.20
2017-11-12T23:34:27.032Z,6.20
2017-11-12T23:36:55.299Z,6.20
2017-11-12T23:39:25.095Z,6.20
2017-11-12T23:41:53.427Z,6.20
2017-11-12T23:44:21.692Z,6.20
2017-11-12T23:51:49.051Z,6.10
2017-11-12T23:54:17.384Z,6.10
2017-11-12T23:56:45.695Z,6.00
2017-11-12T23:59:13.970Z,5.90
